Time;durP1;ratioP1;P1;durP2;ratioP2;P2;SDS_P1;SDS_P2;PMS_P1;PMS_P2;Temp;Humidity;BMP_temperature;BMP_pressure;BME280_temperature;BME280_humidity;BME280_pressure;Samples;Min_cycle;Max_cycle;Signal;HPM_P1;HPM_P2
2023/06/19 00:03:04;;;;;;;23.33;16.65;;;;;;;;;;6214059;28;20526;-77
2023/06/19 00:06:08;;;;;;;22.10;16.80;;;;;;;;;;6213794;28;20238;-77
2023/06/19 00:09:13;;;;;;;22.63;16.77;;;;;;;;;;6214172;28;20297;-76
2023/06/19 00:12:19;;;;;;;23.60;16.42;;;;;;;;;;6214464;28;20436;-77
2023/06/19 00:15:23;;;;;;;22.58;16.30;;;;;;;;;;6214140;28;20475;-77
2023/06/19 00:18:28;;;;;;;25.55;17.17;;;;;;;;;;6213745;28;20293;-76
2023/06/19 00:21:33;;;;;;;23.27;17.02;;;;;;;;;;6214545;28;20238;-76
2023/06/19 00:24:37;;;;;;;22.83;16.10;;;;;;;;;;6213491;28;20301;-77
2023/06/19 00:27:43;;;;;;;24.98;16.88;;;;;;;;;;6214042;28;20242;-76
2023/06/19 00:30:48;;;;;;;22.38;16.92;;;;;;;;;;6196200;28;20333;-77
2023/06/19 00:33:53;;;;;;;22.83;16.95;;;;;;;;;;6213430;28;20293;-77
2023/06/19 00:36:58;;;;;;;27.95;18.15;;;;;;;;;;6213862;28;20246;-77
2023/06/19 00:40:04;;;;;;;26.55;17.75;;;;;;;;;;6195744;28;20305;-77
2023/06/19 00:43:10;;;;;;;25.63;18.00;;;;;;;;;;6196110;28;20274;-77
2023/06/19 00:46:14;;;;;;;23.90;17.58;;;;;;;;;;6213407;28;20242;-77
2023/06/19 00:49:19;;;;;;;26.65;18.58;;;;;;;;;;6213272;28;20296;-77
2023/06/19 00:52:23;;;;;;;29.08;19.92;;;;;;;;;;6212483;28;20285;-77
2023/06/19 00:55:30;;;;;;;29.35;19.48;;;;;;;;;;6213254;28;20388;-76
2023/06/19 00:58:36;;;;;;;28.67;19.38;;;;;;;;;;6213520;28;20288;-77
2023/06/19 01:01:41;;;;;;;31.23;19.20;;;;;;;;;;6209394;22;20273;-75
2023/06/19 01:04:46;;;;;;;29.02;20.42;;;;;;;;;;6211558;28;20300;-70
2023/06/19 01:07:58;;;;;;;30.65;19.40;;;;;;;;;;6214025;28;20258;-71
2023/06/19 01:11:03;;;;;;;25.42;18.00;;;;;;;;;;6211170;28;20285;-70
2023/06/19 01:14:39;;;;;;;31.33;18.75;;;;;;;;;;6212917;28;20297;-71
2023/06/19 01:17:43;;;;;;;24.95;17.42;;;;;;;;;;6213398;28;20525;-69
2023/06/19 01:20:50;;;;;;;27.70;18.13;;;;;;;;;;6212737;28;20289;-70
2023/06/19 01:23:56;;;;;;;24.75;16.98;;;;;;;;;;6211520;28;20431;-69
2023/06/19 01:27:01;;;;;;;19.55;16.45;;;;;;;;;;6213399;28;20251;-69
2023/06/19 01:30:07;;;;;;;20.42;15.73;;;;;;;;;;6212606;28;20292;-70
2023/06/19 01:33:17;;;;;;;18.95;15.98;;;;;;;;;;6212681;28;20273;-70
2023/06/19 01:36:22;;;;;;;22.52;16.65;;;;;;;;;;6212790;28;20246;-70
2023/06/19 01:39:30;;;;;;;21.42;15.88;;;;;;;;;;6211075;28;20296;-70
2023/06/19 01:42:36;;;;;;;22.73;17.00;;;;;;;;;;6213121;28;20250;-71
2023/06/19 01:45:41;;;;;;;20.33;16.48;;;;;;;;;;6227430;28;20546;-70
2023/06/19 01:48:45;;;;;;;20.35;16.15;;;;;;;;;;6227375;28;20301;-70
2023/06/19 01:51:50;;;;;;;21.60;16.08;;;;;;;;;;6227762;28;20294;-70
2023/06/19 01:54:56;;;;;;;19.45;15.75;;;;;;;;;;6212256;28;20316;-70
2023/06/19 01:58:00;;;;;;;17.73;15.85;;;;;;;;;;6211746;28;20266;-69
2023/06/19 02:01:06;;;;;;;18.17;15.00;;;;;;;;;;6227282;28;20272;-70
2023/06/19 02:04:11;;;;;;;18.52;15.13;;;;;;;;;;6210346;28;20573;-70
2023/06/19 02:07:15;;;;;;;17.30;14.18;;;;;;;;;;6212101;28;20233;-69
2023/06/19 02:10:22;;;;;;;15.77;13.77;;;;;;;;;;6211832;28;20288;-70
2023/06/19 02:13:27;;;;;;;16.60;13.73;;;;;;;;;;6211582;28;20359;-70
2023/06/19 02:16:32;;;;;;;14.52;13.05;;;;;;;;;;6227132;28;20272;-70
2023/06/19 02:19:37;;;;;;;14.90;13.40;;;;;;;;;;6211898;28;20298;-70
2023/06/19 02:22:42;;;;;;;17.90;13.82;;;;;;;;;;6210834;28;20286;-70
2023/06/19 02:25:48;;;;;;;14.73;13.23;;;;;;;;;;6211855;28;20612;-69
2023/06/19 02:28:54;;;;;;;14.90;13.27;;;;;;;;;;6225972;28;20309;-70
2023/06/19 02:31:58;;;;;;;15.50;13.60;;;;;;;;;;6210750;28;20289;-70
2023/06/19 02:35:04;;;;;;;15.25;13.40;;;;;;;;;;6226247;28;20592;-69
2023/06/19 02:38:12;;;;;;;14.18;12.68;;;;;;;;;;6211148;28;20249;-70
2023/06/19 02:41:18;;;;;;;14.18;12.73;;;;;;;;;;6226670;28;20273;-69
2023/06/19 02:44:23;;;;;;;14.75;13.20;;;;;;;;;;6211208;28;20298;-69
2023/06/19 02:47:27;;;;;;;14.10;12.73;;;;;;;;;;6210789;28;20278;-70
2023/06/19 02:50:32;;;;;;;14.52;12.65;;;;;;;;;;6209847;28;20288;-68
2023/06/19 02:53:36;;;;;;;14.70;13.23;;;;;;;;;;6211041;28;20305;-71
2023/06/19 02:56:42;;;;;;;14.10;12.70;;;;;;;;;;6211887;28;20246;-69
2023/06/19 02:59:47;;;;;;;13.73;12.50;;;;;;;;;;6209834;28;20304;-69
2023/06/19 03:02:53;;;;;;;18.70;13.07;;;;;;;;;;6209937;28;20301;-70
2023/06/19 03:06:00;;;;;;;13.75;12.45;;;;;;;;;;6211885;28;20279;-69
2023/06/19 03:09:11;;;;;;;14.95;12.98;;;;;;;;;;6210899;28;20444;-70
2023/06/19 03:12:17;;;;;;;13.88;12.57;;;;;;;;;;6211113;28;20273;-70
2023/06/19 03:15:22;;;;;;;16.10;12.75;;;;;;;;;;6210544;28;20292;-70
2023/06/19 03:18:28;;;;;;;14.32;12.73;;;;;;;;;;6209423;28;20321;-69
2023/06/19 03:21:32;;;;;;;14.20;12.68;;;;;;;;;;6209947;28;20281;-72
2023/06/19 03:24:37;;;;;;;14.27;12.77;;;;;;;;;;6225549;28;20297;-70
2023/06/19 03:27:57;;;;;;;13.40;12.00;;;;;;;;;;6209547;28;20301;-72
2023/06/19 03:31:02;;;;;;;15.73;12.52;;;;;;;;;;6226091;28;20273;-70
2023/06/19 03:34:07;;;;;;;13.60;12.20;;;;;;;;;;6208903;28;20297;-70
2023/06/19 03:37:14;;;;;;;14.38;13.05;;;;;;;;;;6226047;28;20269;-70
2023/06/19 03:40:20;;;;;;;14.65;13.10;;;;;;;;;;6211471;28;20297;-70
2023/06/19 03:43:27;;;;;;;16.77;12.65;;;;;;;;;;6230251;28;20308;-70
2023/06/19 03:46:32;;;;;;;18.30;12.95;;;;;;;;;;6213898;28;20298;-71
2023/06/19 03:49:37;;;;;;;13.68;12.20;;;;;;;;;;6213632;28;20488;-70
2023/06/19 03:52:41;;;;;;;15.50;12.90;;;;;;;;;;6214809;28;20265;-69
2023/06/19 03:55:46;;;;;;;16.05;12.82;;;;;;;;;;6213718;28;20549;-69
2023/06/19 03:58:52;;;;;;;16.80;12.68;;;;;;;;;;6213323;28;20302;-70
2023/06/19 04:01:57;;;;;;;14.93;12.32;;;;;;;;;;6222205;28;20458;-70
2023/06/19 04:05:02;;;;;;;15.68;12.60;;;;;;;;;;6254223;28;20297;-70
2023/06/19 04:08:06;;;;;;;16.58;12.75;;;;;;;;;;6237170;28;20297;-70
2023/06/19 04:11:11;;;;;;;15.95;12.90;;;;;;;;;;6239528;28;20539;-69
2023/06/19 04:14:17;;;;;;;14.85;13.30;;;;;;;;;;6239299;28;20588;-71
2023/06/19 04:17:22;;;;;;;15.95;13.32;;;;;;;;;;6238950;28;20249;-71
2023/06/19 04:20:27;;;;;;;16.48;13.65;;;;;;;;;;6238683;28;20293;-70
2023/06/19 04:23:31;;;;;;;20.70;14.07;;;;;;;;;;6237268;28;20291;-70
2023/06/19 04:26:36;;;;;;;16.00;13.50;;;;;;;;;;6238833;28;20528;-71
2023/06/19 04:29:42;;;;;;;21.50;14.60;;;;;;;;;;6238701;28;20301;-71
2023/06/19 04:32:47;;;;;;;24.30;14.77;;;;;;;;;;6238055;28;20256;-70
2023/06/19 04:35:51;;;;;;;20.23;15.15;;;;;;;;;;6239039;28;20497;-72
2023/06/19 04:38:56;;;;;;;16.70;14.88;;;;;;;;;;6238293;28;20296;-70
2023/06/19 04:42:01;;;;;;;21.92;15.10;;;;;;;;;;6238857;28;20249;-70
2023/06/19 04:45:09;;;;;;;18.63;14.85;;;;;;;;;;6238468;28;20613;-69
2023/06/19 04:48:14;;;;;;;21.17;15.48;;;;;;;;;;6238104;28;20288;-69
2023/06/19 04:51:20;;;;;;;20.80;14.88;;;;;;;;;;6238147;28;20261;-70
2023/06/19 04:54:25;;;;;;;25.08;15.52;;;;;;;;;;6237891;28;20292;-71
2023/06/19 04:57:30;;;;;;;20.25;15.52;;;;;;;;;;6238769;28;20400;-69
2023/06/19 05:00:36;;;;;;;22.67;16.25;;;;;;;;;;6236522;28;20292;-72
2023/06/19 05:03:41;;;;;;;24.27;15.85;;;;;;;;;;6237783;28;20328;-70
2023/06/19 05:06:45;;;;;;;26.67;15.75;;;;;;;;;;6238264;28;20244;-70
2023/06/19 05:09:50;;;;;;;21.65;15.57;;;;;;;;;;6237683;28;20296;-71
2023/06/19 05:12:55;;;;;;;25.20;15.48;;;;;;;;;;6236987;28;20308;-69
2023/06/19 05:16:01;;;;;;;23.90;16.88;;;;;;;;;;6237890;28;20245;-70
2023/06/19 05:19:05;;;;;;;22.35;15.13;;;;;;;;;;6237595;28;20292;-70
2023/06/19 05:22:10;;;;;;;21.15;15.98;;;;;;;;;;6237566;28;20268;-70
2023/06/19 05:25:14;;;;;;;22.33;16.30;;;;;;;;;;6237655;28;20296;-71
2023/06/19 05:28:19;;;;;;;19.30;15.20;;;;;;;;;;6237725;28;20304;-70
2023/06/19 05:31:25;;;;;;;21.13;15.13;;;;;;;;;;6237998;28;20249;-71
2023/06/19 05:34:30;;;;;;;23.98;16.35;;;;;;;;;;6237566;28;20296;-70
2023/06/19 05:37:34;;;;;;;23.88;16.17;;;;;;;;;;6237589;28;20249;-70
2023/06/19 05:40:39;;;;;;;21.35;15.77;;;;;;;;;;6236951;28;20596;-69
2023/06/19 05:43:44;;;;;;;21.00;14.82;;;;;;;;;;6236970;28;20292;-70
2023/06/19 05:46:50;;;;;;;22.17;16.48;;;;;;;;;;6237032;28;20453;-70
2023/06/19 05:49:54;;;;;;;23.83;16.77;;;;;;;;;;6229361;28;20330;-70
2023/06/19 05:52:59;;;;;;;22.50;16.83;;;;;;;;;;6237248;28;20297;-70
2023/06/19 05:56:05;;;;;;;26.70;16.83;;;;;;;;;;6237208;28;20245;-69
2023/06/19 05:59:10;;;;;;;25.48;16.80;;;;;;;;;;6236195;28;20303;-69
2023/06/19 06:02:16;;;;;;;27.90;18.13;;;;;;;;;;6236632;28;20296;-69
2023/06/19 06:05:21;;;;;;;25.73;17.13;;;;;;;;;;6235996;28;20501;-70
2023/06/19 06:08:25;;;;;;;25.80;16.58;;;;;;;;;;6235964;28;20303;-69
2023/06/19 06:11:30;;;;;;;31.63;17.95;;;;;;;;;;6236383;28;20242;-70
2023/06/19 06:14:34;;;;;;;28.70;17.67;;;;;;;;;;6235870;28;20480;-69
2023/06/19 06:17:40;;;;;;;26.98;17.90;;;;;;;;;;6236115;28;20513;-69
2023/06/19 06:20:45;;;;;;;29.48;17.52;;;;;;;;;;6236591;28;20245;-70
2023/06/19 06:23:49;;;;;;;23.13;16.83;;;;;;;;;;6236143;28;20296;-69
2023/06/19 06:26:54;;;;;;;29.00;16.88;;;;;;;;;;6236231;28;20248;-69
2023/06/19 06:29:59;;;;;;;27.98;17.63;;;;;;;;;;6235841;28;20309;-69
2023/06/19 06:33:05;;;;;;;23.48;15.07;;;;;;;;;;6230199;28;20295;-70
2023/06/19 06:36:10;;;;;;;22.83;15.63;;;;;;;;;;6247140;28;20260;-68
2023/06/19 06:39:25;;;;;;;19.83;15.55;;;;;;;;;;6235876;28;20300;-69
2023/06/19 06:42:30;;;;;;;20.45;14.88;;;;;;;;;;6236280;28;20241;-70
2023/06/19 06:45:37;;;;;;;14.05;12.60;;;;;;;;;;6235949;28;20292;-68
2023/06/19 06:48:43;;;;;;;17.95;13.63;;;;;;;;;;6234184;28;20461;-70
2023/06/19 06:51:48;;;;;;;15.13;12.82;;;;;;;;;;6236113;28;20249;-69
2023/06/19 06:54:53;;;;;;;14.10;12.70;;;;;;;;;;6227429;28;20308;-69
2023/06/19 06:57:58;;;;;;;15.07;12.70;;;;;;;;;;6235254;28;20359;-69
2023/06/19 07:01:02;;;;;;;15.80;14.07;;;;;;;;;;6235599;28;20237;-69
2023/06/19 07:04:08;;;;;;;15.07;13.40;;;;;;;;;;6234849;28;20352;-69
2023/06/19 07:07:13;;;;;;;16.13;12.27;;;;;;;;;;6235848;28;20244;-69
2023/06/19 07:10:18;;;;;;;15.90;13.10;;;;;;;;;;6235311;28;20300;-69
2023/06/19 07:13:22;;;;;;;17.33;12.18;;;;;;;;;;6235654;28;20292;-68
2023/06/19 07:16:27;;;;;;;17.30;12.95;;;;;;;;;;6239700;28;20438;-70
2023/06/19 07:19:33;;;;;;;14.02;12.32;;;;;;;;;;6240060;28;20296;-70
2023/06/19 07:22:37;;;;;;;13.00;11.80;;;;;;;;;;6239749;28;20245;-69
2023/06/19 07:25:42;;;;;;;13.88;10.93;;;;;;;;;;6240266;28;20309;-68
2023/06/19 07:28:47;;;;;;;13.25;11.40;;;;;;;;;;6239558;28;20356;-69
2023/06/19 07:31:51;;;;;;;17.10;12.35;;;;;;;;;;6240040;28;20241;-70
2023/06/19 07:34:57;;;;;;;13.55;11.90;;;;;;;;;;6238295;28;20296;-70
2023/06/19 07:38:02;;;;;;;13.65;11.35;;;;;;;;;;6239928;28;20292;-70
2023/06/19 07:41:07;;;;;;;13.40;11.57;;;;;;;;;;6240321;28;20237;-69
2023/06/19 07:44:12;;;;;;;17.08;10.75;;;;;;;;;;6239666;28;20324;-69
2023/06/19 07:47:18;;;;;;;12.50;11.20;;;;;;;;;;6240235;28;20245;-70
2023/06/19 07:50:25;;;;;;;11.65;10.55;;;;;;;;;;6239718;28;20428;-69
2023/06/19 07:53:31;;;;;;;14.80;11.07;;;;;;;;;;6239681;28;20292;-69
2023/06/19 07:56:36;;;;;;;15.43;10.60;;;;;;;;;;6239929;28;20549;-69
2023/06/19 07:59:40;;;;;;;11.00;9.93;;;;;;;;;;6239473;28;20288;-69
2023/06/19 08:02:45;;;;;;;11.30;10.20;;;;;;;;;;6238961;28;20300;-69
2023/06/19 08:05:51;;;;;;;11.52;10.32;;;;;;;;;;6239495;28;20265;-69
2023/06/19 08:08:56;;;;;;;11.25;10.13;;;;;;;;;;6238864;28;20484;-69
2023/06/19 08:12:01;;;;;;;12.77;10.27;;;;;;;;;;6249050;28;20292;-70
2023/06/19 08:15:06;;;;;;;10.93;9.80;;;;;;;;;;6238837;28;20300;-69
2023/06/19 08:18:11;;;;;;;10.60;9.57;;;;;;;;;;6239145;28;20284;-68
2023/06/19 08:21:17;;;;;;;10.75;9.10;;;;;;;;;;6238902;28;20238;-71
2023/06/19 08:24:22;;;;;;;10.68;9.68;;;;;;;;;;6238471;28;20301;-69
2023/06/19 08:27:26;;;;;;;11.55;9.10;;;;;;;;;;6239113;28;20265;-70
2023/06/19 08:30:31;;;;;;;11.88;9.93;;;;;;;;;;6238738;28;20479;-68
2023/06/19 08:33:36;;;;;;;16.00;9.25;;;;;;;;;;6238215;28;20315;-69
2023/06/19 08:36:42;;;;;;;11.98;9.35;;;;;;;;;;6238447;28;20394;-69
2023/06/19 08:39:46;;;;;;;13.52;10.40;;;;;;;;;;6238393;28;20296;-69
2023/06/19 08:42:52;;;;;;;10.55;9.48;;;;;;;;;;6238212;28;20241;-69
2023/06/19 08:46:07;;;;;;;11.85;9.70;;;;;;;;;;6238309;28;20553;-69
2023/06/19 08:49:12;;;;;;;13.13;9.77;;;;;;;;;;6238435;28;20292;-70
2023/06/19 08:52:18;;;;;;;10.68;9.55;;;;;;;;;;6238472;28;20246;-71
2023/06/19 08:55:22;;;;;;;12.20;9.73;;;;;;;;;;6237799;28;20300;-69
2023/06/19 08:58:28;;;;;;;13.48;9.90;;;;;;;;;;6236177;28;20292;-70
2023/06/19 09:01:32;;;;;;;9.95;9.02;;;;;;;;;;6238031;28;20290;-70
2023/06/19 09:04:37;;;;;;;11.00;9.43;;;;;;;;;;6237382;28;20434;-67
2023/06/19 09:07:43;;;;;;;10.65;9.55;;;;;;;;;;6235895;28;20379;-68
2023/06/19 09:10:58;;;;;;;10.00;9.07;;;;;;;;;;6226899;28;20246;-69
2023/06/19 09:14:03;;;;;;;10.63;9.65;;;;;;;;;;6211618;28;20293;-71
2023/06/19 09:17:09;;;;;;;12.27;9.35;;;;;;;;;;6213283;28;20269;-71
2023/06/19 09:20:15;;;;;;;10.18;9.20;;;;;;;;;;6212868;28;20297;-70
2023/06/19 09:23:21;;;;;;;10.98;9.43;;;;;;;;;;6210817;28;20296;-70
2023/06/19 09:26:29;;;;;;;10.80;9.50;;;;;;;;;;6194654;28;20262;-71
2023/06/19 09:29:37;;;;;;;11.60;9.35;;;;;;;;;;6212526;28;20310;-69
2023/06/19 09:32:41;;;;;;;13.65;9.38;;;;;;;;;;6212311;28;20245;-69
2023/06/19 09:35:46;;;;;;;11.30;9.38;;;;;;;;;;6213041;28;20265;-68
2023/06/19 09:38:55;;;;;;;13.18;9.85;;;;;;;;;;6211347;28;20297;-69
2023/06/19 09:42:01;;;;;;;10.32;9.32;;;;;;;;;;6213026;28;20246;-69
2023/06/19 09:45:07;;;;;;;9.43;8.60;;;;;;;;;;6211857;28;20288;-68
2023/06/19 09:48:15;;;;;;;12.57;8.60;;;;;;;;;;6211642;28;20589;-70
2023/06/19 09:51:32;;;;;;;10.95;8.23;;;;;;;;;;6211304;28;20281;-69
2023/06/19 09:54:38;;;;;;;9.65;8.27;;;;;;;;;;6211895;28;20388;-70
2023/06/19 09:57:44;;;;;;;9.43;8.02;;;;;;;;;;6211458;28;20265;-70
2023/06/19 10:00:50;;;;;;;13.30;8.63;;;;;;;;;;6212339;28;20261;-69
2023/06/19 10:04:04;;;;;;;9.10;8.07;;;;;;;;;;6229896;28;20301;-70
2023/06/19 10:07:17;;;;;;;11.13;8.65;;;;;;;;;;6236665;28;20245;-69
2023/06/19 10:10:27;;;;;;;9.43;7.82;;;;;;;;;;6236093;28;20604;-70
2023/06/19 10:13:38;;;;;;;10.13;8.70;;;;;;;;;;6236158;28;20498;-69
2023/06/19 10:16:43;;;;;;;11.93;8.60;;;;;;;;;;6236505;28;20264;-70
2023/06/19 10:19:52;;;;;;;11.10;8.30;;;;;;;;;;6250017;28;20421;-69
2023/06/19 10:23:02;;;;;;;13.32;8.77;;;;;;;;;;6236063;28;20284;-69
2023/06/19 10:26:10;;;;;;;13.75;8.60;;;;;;;;;;6236196;28;20240;-69
2023/06/19 10:29:18;;;;;;;12.52;8.38;;;;;;;;;;6236190;28;20395;-71
2023/06/19 10:32:23;;;;;;;9.70;8.07;;;;;;;;;;6236115;28;20237;-71
2023/06/19 10:35:28;;;;;;;12.57;8.15;;;;;;;;;;6235714;28;20304;-70
2023/06/19 10:38:33;;;;;;;10.90;8.15;;;;;;;;;;6235492;28;20304;-68
2023/06/19 10:41:41;;;;;;;13.18;8.25;;;;;;;;;;6236186;28;20242;-69
2023/06/19 10:44:46;;;;;;;11.10;7.40;;;;;;;;;;6235038;28;20285;-72
2023/06/19 10:47:52;;;;;;;18.60;7.78;;;;;;;;;;6235362;28;20241;-69
2023/06/19 10:50:58;;;;;;;12.30;8.00;;;;;;;;;;6227837;28;20435;-69
2023/06/19 10:54:03;;;;;;;12.30;7.60;;;;;;;;;;6235291;28;20296;-70
2023/06/19 10:57:10;;;;;;;12.10;7.95;;;;;;;;;;6250569;28;20292;-69
2023/06/19 11:00:25;;;;;;;16.23;8.35;;;;;;;;;;6235243;28;20292;-69
2023/06/19 11:03:30;;;;;;;20.08;10.32;;;;;;;;;;6235119;28;20453;-68
2023/06/19 11:06:35;;;;;;;33.72;14.57;;;;;;;;;;6236296;28;20245;-71
2023/06/19 11:09:40;;;;;;;27.25;10.07;;;;;;;;;;6235037;28;20300;-70
2023/06/19 11:12:49;;;;;;;35.20;11.52;;;;;;;;;;6227594;28;20241;-69
2023/06/19 11:15:54;;;;;;;19.92;11.32;;;;;;;;;;6235280;28;20443;-71
2023/06/19 11:18:59;;;;;;;18.33;11.13;;;;;;;;;;6217697;28;20304;-71
2023/06/19 11:22:04;;;;;;;19.42;11.48;;;;;;;;;;6235322;28;20233;-68
2023/06/19 11:25:10;;;;;;;13.50;10.73;;;;;;;;;;6235450;28;20296;-68
2023/06/19 11:28:17;;;;;;;16.27;11.77;;;;;;;;;;6235302;28;20304;-69
2023/06/19 11:31:27;;;;;;;18.90;11.18;;;;;;;;;;6235572;28;20240;-69
2023/06/19 11:34:33;;;;;;;15.02;11.02;;;;;;;;;;6235104;28;20430;-69
2023/06/19 11:37:40;;;;;;;12.98;9.57;;;;;;;;;;6234999;28;20273;-69
2023/06/19 11:40:46;;;;;;;14.73;10.55;;;;;;;;;;6234525;28;20268;-70
2023/06/19 11:43:52;;;;;;;13.32;9.98;;;;;;;;;;6235349;28;20296;-68
2023/06/19 11:46:59;;;;;;;13.32;10.43;;;;;;;;;;6233795;28;20277;-68
2023/06/19 11:50:06;;;;;;;15.05;11.10;;;;;;;;;;6233982;28;20296;-69
2023/06/19 11:53:11;;;;;;;10.60;9.57;;;;;;;;;;6250127;28;20296;-69
2023/06/19 11:56:16;;;;;;;13.80;10.90;;;;;;;;;;6235563;28;20237;-69
2023/06/19 11:59:22;;;;;;;12.43;10.15;;;;;;;;;;6235178;28;20584;-69
2023/06/19 12:02:26;;;;;;;12.27;10.38;;;;;;;;;;6237415;28;20292;-69
2023/06/19 12:05:31;;;;;;;16.90;10.45;;;;;;;;;;6239495;28;20312;-70
2023/06/19 12:08:37;;;;;;;12.05;9.32;;;;;;;;;;6239199;28;20572;-69
2023/06/19 12:11:41;;;;;;;12.82;9.95;;;;;;;;;;6228990;28;20308;-69
2023/06/19 12:14:47;;;;;;;12.75;10.55;;;;;;;;;;6239050;28;20300;-69
2023/06/19 12:17:52;;;;;;;12.65;10.50;;;;;;;;;;6238815;28;20264;-69
2023/06/19 12:20:57;;;;;;;11.95;10.32;;;;;;;;;;6239189;28;20241;-70
2023/06/19 12:24:02;;;;;;;14.00;11.18;;;;;;;;;;6238876;28;20315;-67
2023/06/19 12:27:07;;;;;;;11.90;10.70;;;;;;;;;;6239044;28;20521;-70
2023/06/19 12:30:13;;;;;;;11.60;10.65;;;;;;;;;;6238604;28;20325;-69
2023/06/19 12:33:18;;;;;;;12.18;10.82;;;;;;;;;;6238723;28;20293;-69
2023/06/19 12:36:23;;;;;;;14.65;11.73;;;;;;;;;;6238707;28;20238;-68
2023/06/19 12:39:28;;;;;;;12.13;10.93;;;;;;;;;;6238787;28;20300;-69
2023/06/19 12:42:33;;;;;;;13.07;10.40;;;;;;;;;;6239225;28;20233;-69
2023/06/19 12:45:39;;;;;;;14.07;10.30;;;;;;;;;;6239417;28;20308;-69
2023/06/19 12:48:43;;;;;;;11.88;9.95;;;;;;;;;;6238070;28;20304;-69
2023/06/19 12:51:51;;;;;;;10.73;9.75;;;;;;;;;;6238370;28;20236;-69
2023/06/19 12:54:56;;;;;;;11.23;10.02;;;;;;;;;;6238007;28;20420;-69
2023/06/19 12:58:00;;;;;;;11.95;9.88;;;;;;;;;;6237464;28;20292;-69
2023/06/19 13:01:06;;;;;;;8.95;8.32;;;;;;;;;;6238845;28;20541;-70
2023/06/19 13:04:12;;;;;;;8.98;8.27;;;;;;;;;;6237402;28;20580;-70
2023/06/19 13:07:16;;;;;;;9.90;9.00;;;;;;;;;;6233712;28;20248;-71
2023/06/19 13:10:21;;;;;;;9.70;8.82;;;;;;;;;;6219888;28;20292;-70
2023/06/19 13:13:26;;;;;;;10.07;9.27;;;;;;;;;;6237272;28;20300;-68
2023/06/19 13:16:34;;;;;;;14.50;8.80;;;;;;;;;;6251933;28;20300;-68
2023/06/19 13:19:50;;;;;;;8.88;8.20;;;;;;;;;;6237420;28;20553;-69
2023/06/19 13:22:54;;;;;;;9.65;8.88;;;;;;;;;;6237256;28;20237;-71
2023/06/19 13:25:59;;;;;;;8.88;8.07;;;;;;;;;;6238059;28;20245;-70
2023/06/19 13:29:04;;;;;;;8.07;7.38;;;;;;;;;;6237512;28;20292;-68
2023/06/19 13:32:10;;;;;;;8.20;7.65;;;;;;;;;;6238128;28;20248;-69
2023/06/19 13:35:14;;;;;;;9.93;9.02;;;;;;;;;;6237529;28;20304;-69
2023/06/19 13:38:19;;;;;;;10.05;9.25;;;;;;;;;;6237083;28;20304;-69
2023/06/19 13:41:24;;;;;;;9.38;8.68;;;;;;;;;;6237900;28;20435;-70
2023/06/19 13:44:29;;;;;;;10.77;9.68;;;;;;;;;;6237019;28;20304;-68
2023/06/19 13:47:36;;;;;;;11.77;9.63;;;;;;;;;;6236009;28;20277;-69
2023/06/19 13:50:41;;;;;;;9.07;8.30;;;;;;;;;;6236716;28;20268;-70
2023/06/19 13:53:45;;;;;;;8.85;8.15;;;;;;;;;;6237073;28;20300;-69
2023/06/19 13:56:51;;;;;;;7.57;6.97;;;;;;;;;;6237466;28;20232;-70
2023/06/19 13:59:55;;;;;;;7.05;6.40;;;;;;;;;;6236775;28;20304;-68
2023/06/19 14:03:03;;;;;;;8.80;8.15;;;;;;;;;;6236332;28;20292;-69
2023/06/19 14:06:08;;;;;;;7.22;6.70;;;;;;;;;;6236970;28;20244;-68
2023/06/19 14:09:13;;;;;;;7.57;6.82;;;;;;;;;;6235125;28;20473;-70
2023/06/19 14:12:20;;;;;;;7.75;6.68;;;;;;;;;;6236773;28;20244;-71
2023/06/19 14:15:24;;;;;;;8.18;7.57;;;;;;;;;;6236225;28;20296;-70
2023/06/19 14:18:31;;;;;;;7.93;7.13;;;;;;;;;;6236248;28;20300;-70
2023/06/19 14:21:35;;;;;;;6.97;6.43;;;;;;;;;;6236298;28;20407;-68
2023/06/19 14:24:40;;;;;;;7.18;6.68;;;;;;;;;;6235456;28;20300;-69
2023/06/19 14:27:44;;;;;;;8.57;7.88;;;;;;;;;;6236056;28;20241;-69
2023/06/19 14:30:49;;;;;;;8.10;7.53;;;;;;;;;;6236610;28;20253;-69
2023/06/19 14:33:56;;;;;;;8.38;7.68;;;;;;;;;;6236011;28;20304;-69
2023/06/19 14:37:00;;;;;;;7.65;7.10;;;;;;;;;;6236109;28;20312;-70
2023/06/19 14:40:06;;;;;;;8.43;7.72;;;;;;;;;;6235468;28;20300;-67
2023/06/19 14:43:10;;;;;;;10.32;8.70;;;;;;;;;;6235578;28;20323;-68
2023/06/19 14:46:15;;;;;;;13.43;8.93;;;;;;;;;;6236290;28;20245;-69
2023/06/19 14:49:41;;;;;;;8.98;8.18;;;;;;;;;;6235730;28;20496;-72
2023/06/19 14:52:46;;;;;;;14.43;9.02;;;;;;;;;;6235299;28;20236;-70
2023/06/19 14:55:51;;;;;;;11.02;9.80;;;;;;;;;;6236228;28;20505;-71
2023/06/19 14:58:55;;;;;;;11.93;10.80;;;;;;;;;;6234878;28;20296;-70
2023/06/19 15:02:02;;;;;;;11.80;10.13;;;;;;;;;;6235331;28;20265;-70
2023/06/19 15:05:09;;;;;;;13.65;10.13;;;;;;;;;;6235245;28;20284;-70
2023/06/19 15:08:13;;;;;;;10.43;9.55;;;;;;;;;;6235035;28;20482;-69
2023/06/19 15:11:18;;;;;;;11.10;10.07;;;;;;;;;;6231690;28;20245;-71
2023/06/19 15:14:22;;;;;;;10.90;10.00;;;;;;;;;;6234813;28;20300;-70
2023/06/19 15:17:27;;;;;;;11.30;9.82;;;;;;;;;;6235108;28;20237;-69
2023/06/19 15:20:33;;;;;;;12.88;9.00;;;;;;;;;;6234405;28;20311;-69
2023/06/19 15:23:38;;;;;;;14.18;8.95;;;;;;;;;;6234900;28;20301;-69
2023/06/19 15:26:43;;;;;;;10.55;9.27;;;;;;;;;;6235776;28;20522;-70
2023/06/19 15:29:47;;;;;;;10.40;9.40;;;;;;;;;;6234830;28;20304;-68
2023/06/19 15:32:52;;;;;;;11.13;9.40;;;;;;;;;;6234406;28;20277;-69
2023/06/19 15:35:58;;;;;;;10.05;9.20;;;;;;;;;;6236710;28;20425;-69
2023/06/19 15:39:03;;;;;;;10.73;9.68;;;;;;;;;;6239614;28;20300;-69
2023/06/19 15:42:08;;;;;;;9.93;9.13;;;;;;;;;;6240043;28;20440;-69
2023/06/19 15:45:14;;;;;;;11.50;9.52;;;;;;;;;;6240160;28;20296;-71
2023/06/19 15:48:18;;;;;;;10.32;9.55;;;;;;;;;;6239497;28;20297;-70
2023/06/19 15:51:24;;;;;;;10.25;9.23;;;;;;;;;;6222205;28;20280;-70
2023/06/19 15:54:29;;;;;;;12.65;9.68;;;;;;;;;;6238874;28;20488;-68
2023/06/19 15:57:34;;;;;;;10.73;9.70;;;;;;;;;;6254465;28;20276;-70
2023/06/19 16:00:39;;;;;;;12.15;9.85;;;;;;;;;;6238804;28;20293;-70
2023/06/19 16:03:44;;;;;;;10.82;9.15;;;;;;;;;;6238804;28;20297;-69
2023/06/19 16:06:50;;;;;;;11.10;10.05;;;;;;;;;;6238857;28;20229;-69
2023/06/19 16:09:55;;;;;;;11.20;10.05;;;;;;;;;;6235377;28;20290;-69
2023/06/19 16:12:59;;;;;;;11.05;9.95;;;;;;;;;;6238728;28;20301;-69
2023/06/19 16:16:04;;;;;;;10.85;9.75;;;;;;;;;;6236925;28;20245;-71
2023/06/19 16:19:09;;;;;;;13.68;11.00;;;;;;;;;;6239019;28;20308;-70
2023/06/19 16:22:15;;;;;;;13.20;11.77;;;;;;;;;;6238980;28;20256;-71
2023/06/19 16:25:22;;;;;;;16.05;12.50;;;;;;;;;;6238899;28;20300;-70
2023/06/19 16:28:29;;;;;;;12.45;11.23;;;;;;;;;;6238843;28;20301;-69
2023/06/19 16:31:34;;;;;;;17.40;10.77;;;;;;;;;;6239026;28;20276;-70
2023/06/19 16:34:45;;;;;;;15.82;11.23;;;;;;;;;;6239349;28;20300;-71
2023/06/19 16:37:53;;;;;;;14.25;11.13;;;;;;;;;;6239352;28;20233;-71
2023/06/19 16:40:58;;;;;;;13.45;10.88;;;;;;;;;;6240146;28;20268;-70
2023/06/19 16:44:02;;;;;;;17.83;11.98;;;;;;;;;;6239746;28;20296;-70
2023/06/19 16:47:07;;;;;;;13.70;11.38;;;;;;;;;;6239037;28;20246;-70
2023/06/19 16:50:12;;;;;;;21.88;11.20;;;;;;;;;;6238900;28;20304;-70
2023/06/19 16:53:18;;;;;;;16.70;12.50;;;;;;;;;;6237854;28;20304;-72
2023/06/19 16:56:23;;;;;;;15.35;11.98;;;;;;;;;;6238175;28;20256;-69
2023/06/19 16:59:27;;;;;;;24.15;11.98;;;;;;;;;;6237640;28;20300;-71
2023/06/19 17:02:33;;;;;;;22.13;12.45;;;;;;;;;;6237785;28;20472;-70
2023/06/19 17:05:37;;;;;;;13.70;12.40;;;;;;;;;;6237361;28;20269;-70
2023/06/19 17:08:44;;;;;;;20.50;12.77;;;;;;;;;;6237703;28;20292;-70
2023/06/19 17:11:48;;;;;;;16.30;12.63;;;;;;;;;;6234624;28;20248;-70
2023/06/19 17:14:53;;;;;;;20.33;13.73;;;;;;;;;;6234014;28;20292;-70
2023/06/19 17:17:58;;;;;;;18.83;12.52;;;;;;;;;;6236824;28;20292;-70
2023/06/19 17:21:02;;;;;;;14.07;12.50;;;;;;;;;;6237329;28;20557;-70
2023/06/19 17:24:10;;;;;;;13.85;12.55;;;;;;;;;;6237283;28;20297;-70
2023/06/19 17:27:16;;;;;;;14.55;12.52;;;;;;;;;;6237307;28;20241;-70
2023/06/19 17:30:21;;;;;;;15.45;12.57;;;;;;;;;;6237325;28;20308;-70
2023/06/19 17:33:26;;;;;;;15.05;11.95;;;;;;;;;;6236711;28;20308;-70
2023/06/19 17:36:31;;;;;;;22.70;12.10;;;;;;;;;;6237114;28;20241;-71
2023/06/19 17:39:36;;;;;;;15.13;12.23;;;;;;;;;;6236658;28;20305;-69
2023/06/19 17:42:41;;;;;;;19.98;14.00;;;;;;;;;;6236267;28;20264;-70
2023/06/19 17:45:46;;;;;;;15.95;12.18;;;;;;;;;;6237022;28;20490;-71
2023/06/19 17:48:51;;;;;;;12.80;11.45;;;;;;;;;;6236764;28;20288;-70
2023/06/19 17:51:55;;;;;;;13.93;11.27;;;;;;;;;;6237169;28;20241;-71
2023/06/19 17:55:01;;;;;;;15.75;11.73;;;;;;;;;;6236882;28;20292;-70
2023/06/19 17:58:06;;;;;;;12.52;10.90;;;;;;;;;;6236306;28;20304;-70
2023/06/19 18:01:11;;;;;;;15.73;12.10;;;;;;;;;;6236149;28;20268;-70
2023/06/19 18:04:16;;;;;;;13.20;11.20;;;;;;;;;;6235992;28;20292;-70
2023/06/19 18:07:21;;;;;;;15.55;11.80;;;;;;;;;;6236956;28;20245;-70
2023/06/19 18:10:27;;;;;;;15.85;11.43;;;;;;;;;;6233232;28;20304;-70